sensor_id;sensor_type;location;lat;lon;timestamp;temperature;humidity
22202;DHT22;11266;51.522;6.302;2023-07-29T00:00:11;19.60;99.90
22202;DHT22;11266;51.522;6.302;2023-07-29T00:00:57;19.60;99.90
22202;DHT22;11266;51.522;6.302;2023-07-29T00:01:42;19.60;99.90
22202;DHT22;11266;51.522;6.302;2023-07-29T00:02:28;19.60;99.90
22202;DHT22;11266;51.522;6.302;2023-07-29T00:03:16;19.60;99.90
22202;DHT22;11266;51.522;6.302;2023-07-29T00:04:02;19.50;99.90
22202;DHT22;11266;51.522;6.302;2023-07-29T00:04:47;19.50;99.90
22202;DHT22;11266;51.522;6.302;2023-07-29T00:05:33;19.50;99.90
22202;DHT22;11266;51.522;6.302;2023-07-29T00:06:19;19.50;99.90
22202;DHT22;11266;51.522;6.302;2023-07-29T00:07:04;19.50;99.90
22202;DHT22;11266;51.522;6.302;2023-07-29T00:07:50;19.50;99.90
22202;DHT22;11266;51.522;6.302;2023-07-29T00:08:35;19.50;99.90
22202;DHT22;11266;51.522;6.302;2023-07-29T00:09:21;19.50;99.90
22202;DHT22;11266;51.522;6.302;2023-07-29T00:10:07;19.50;99.90
22202;DHT22;11266;51.522;6.302;2023-07-29T00:10:52;19.50;99.90
22202;DHT22;11266;51.522;6.302;2023-07-29T00:11:38;19.50;99.90
22202;DHT22;11266;51.522;6.302;2023-07-29T00:12:24;19.50;99.90
22202;DHT22;11266;51.522;6.302;2023-07-29T00:13:09;19.50;99.90
22202;DHT22;11266;51.522;6.302;2023-07-29T00:13:55;19.50;99.90
22202;DHT22;11266;51.522;6.302;2023-07-29T00:14:40;19.40;99.90
22202;DHT22;11266;51.522;6.302;2023-07-29T00:15:26;19.50;99.90
22202;DHT22;11266;51.522;6.302;2023-07-29T00:16:11;19.40;99.90
22202;DHT22;11266;51.522;6.302;2023-07-29T00:16:57;19.50;99.90
22202;DHT22;11266;51.522;6.302;2023-07-29T00:17:42;19.50;99.90
22202;DHT22;11266;51.522;6.302;2023-07-29T00:18:28;19.50;99.90
22202;DHT22;11266;51.522;6.302;2023-07-29T00:19:14;19.40;99.90
22202;DHT22;11266;51.522;6.302;2023-07-29T00:19:59;19.40;99.90
22202;DHT22;11266;51.522;6.302;2023-07-29T00:20:45;19.40;99.90
22202;DHT22;11266;51.522;6.302;2023-07-29T00:21:30;19.40;99.90
22202;DHT22;11266;51.522;6.302;2023-07-29T00:22:16;19.40;99.90
22202;DHT22;11266;51.522;6.302;2023-07-29T00:23:01;19.40;99.90
22202;DHT22;11266;51.522;6.302;2023-07-29T00:23:48;19.40;99.90
22202;DHT22;11266;51.522;6.302;2023-07-29T00:24:33;19.40;99.90
22202;DHT22;11266;51.522;6.302;2023-07-29T00:25:19;19.40;99.90
22202;DHT22;11266;51.522;6.302;2023-07-29T00:26:04;19.40;99.90
22202;DHT22;11266;51.522;6.302;2023-07-29T00:26:50;19.30;99.90
22202;DHT22;11266;51.522;6.302;2023-07-29T00:27:35;19.30;99.90
22202;DHT22;11266;51.522;6.302;2023-07-29T00:28:21;19.40;99.90
22202;DHT22;11266;51.522;6.302;2023-07-29T00:29:07;19.40;99.90
22202;DHT22;11266;51.522;6.302;2023-07-29T00:29:52;19.30;99.90
22202;DHT22;11266;51.522;6.302;2023-07-29T00:30:38;19.30;99.90
22202;DHT22;11266;51.522;6.302;2023-07-29T00:31:23;19.30;99.90
22202;DHT22;11266;51.522;6.302;2023-07-29T00:32:09;19.30;99.90
22202;DHT22;11266;51.522;6.302;2023-07-29T00:32:54;19.30;99.90
22202;DHT22;11266;51.522;6.302;2023-07-29T00:33:40;19.30;99.90
22202;DHT22;11266;51.522;6.302;2023-07-29T00:34:25;19.30;99.90
22202;DHT22;11266;51.522;6.302;2023-07-29T00:35:11;19.30;99.90
22202;DHT22;11266;51.522;6.302;2023-07-29T00:35:56;19.30;99.90
22202;DHT22;11266;51.522;6.302;2023-07-29T00:36:42;19.30;99.90
22202;DHT22;11266;51.522;6.302;2023-07-29T00:37:29;19.30;99.90
22202;DHT22;11266;51.522;6.302;2023-07-29T00:38:15;19.30;99.90
22202;DHT22;11266;51.522;6.302;2023-07-29T00:39:01;19.30;99.90
22202;DHT22;11266;51.522;6.302;2023-07-29T00:39:46;19.30;99.90
22202;DHT22;11266;51.522;6.302;2023-07-29T00:40:35;19.30;99.90
22202;DHT22;11266;51.522;6.302;2023-07-29T00:41:21;19.30;99.90
22202;DHT22;11266;51.522;6.302;2023-07-29T00:42:08;19.30;99.90
22202;DHT22;11266;51.522;6.302;2023-07-29T00:42:54;19.30;99.90
22202;DHT22;11266;51.522;6.302;2023-07-29T00:43:40;19.30;99.90
22202;DHT22;11266;51.522;6.302;2023-07-29T00:44:25;19.30;99.90
22202;DHT22;11266;51.522;6.302;2023-07-29T00:45:12;19.30;99.90
22202;DHT22;11266;51.522;6.302;2023-07-29T00:45:59;19.30;99.90
22202;DHT22;11266;51.522;6.302;2023-07-29T00:46:46;19.30;99.90
22202;DHT22;11266;51.522;6.302;2023-07-29T00:47:33;19.30;99.90
22202;DHT22;11266;51.522;6.302;2023-07-29T00:48:18;19.30;99.90
22202;DHT22;11266;51.522;6.302;2023-07-29T00:49:04;19.30;99.90
22202;DHT22;11266;51.522;6.302;2023-07-29T00:49:51;19.30;99.90
22202;DHT22;11266;51.522;6.302;2023-07-29T00:50:37;19.30;99.90
22202;DHT22;11266;51.522;6.302;2023-07-29T00:51:22;19.30;99.90
22202;DHT22;11266;51.522;6.302;2023-07-29T00:52:08;19.30;99.90
22202;DHT22;11266;51.522;6.302;2023-07-29T00:52:57;19.30;99.90
22202;DHT22;11266;51.522;6.302;2023-07-29T00:53:42;19.30;99.90
22202;DHT22;11266;51.522;6.302;2023-07-29T00:54:28;19.30;99.90
22202;DHT22;11266;51.522;6.302;2023-07-29T00:55:13;19.30;99.90
22202;DHT22;11266;51.522;6.302;2023-07-29T00:56:00;19.30;99.90
22202;DHT22;11266;51.522;6.302;2023-07-29T00:56:45;19.30;99.90
22202;DHT22;11266;51.522;6.302;2023-07-29T00:57:31;19.30;99.90
22202;DHT22;11266;51.522;6.302;2023-07-29T00:58:17;19.30;99.90
22202;DHT22;11266;51.522;6.302;2023-07-29T00:59:04;19.40;99.90
22202;DHT22;11266;51.522;6.302;2023-07-29T00:59:50;19.30;99.90
22202;DHT22;11266;51.522;6.302;2023-07-29T01:00:36;19.30;99.90
22202;DHT22;11266;51.522;6.302;2023-07-29T01:01:22;19.30;99.90
22202;DHT22;11266;51.522;6.302;2023-07-29T01:02:08;19.30;99.90
22202;DHT22;11266;51.522;6.302;2023-07-29T01:02:53;19.30;99.90
22202;DHT22;11266;51.522;6.302;2023-07-29T01:03:40;19.30;99.90
22202;DHT22;11266;51.522;6.302;2023-07-29T01:04:26;19.30;99.90
22202;DHT22;11266;51.522;6.302;2023-07-29T01:05:12;19.30;99.90
22202;DHT22;11266;51.522;6.302;2023-07-29T01:06:12;19.30;99.90
22202;DHT22;11266;51.522;6.302;2023-07-29T01:07:14;19.30;99.90
22202;DHT22;11266;51.522;6.302;2023-07-29T01:08:19;19.30;99.90
22202;DHT22;11266;51.522;6.302;2023-07-29T01:09:29;19.40;99.90
22202;DHT22;11266;51.522;6.302;2023-07-29T01:12:48;19.30;99.90
22202;DHT22;11266;51.522;6.302;2023-07-29T01:13:53;19.30;99.90
22202;DHT22;11266;51.522;6.302;2023-07-29T01:14:46;19.40;99.90
22202;DHT22;11266;51.522;6.302;2023-07-29T01:16:54;19.40;99.90
22202;DHT22;11266;51.522;6.302;2023-07-29T01:17:46;19.40;99.90
22202;DHT22;11266;51.522;6.302;2023-07-29T01:18:32;19.40;99.90
22202;DHT22;11266;51.522;6.302;2023-07-29T01:19:34;19.40;99.90
22202;DHT22;11266;51.522;6.302;2023-07-29T01:20:27;19.30;99.90
22202;DHT22;11266;51.522;6.302;2023-07-29T01:21:13;19.30;99.90
22202;DHT22;11266;51.522;6.302;2023-07-29T01:21:59;19.40;99.90
22202;DHT22;11266;51.522;6.302;2023-07-29T01:22:46;19.40;99.90
22202;DHT22;11266;51.522;6.302;2023-07-29T01:23:34;19.30;99.90
22202;DHT22;11266;51.522;6.302;2023-07-29T01:24:19;19.30;99.90
22202;DHT22;11266;51.522;6.302;2023-07-29T01:25:05;19.40;99.90
22202;DHT22;11266;51.522;6.302;2023-07-29T01:25:51;19.30;99.90
22202;DHT22;11266;51.522;6.302;2023-07-29T01:26:37;19.40;99.90
22202;DHT22;11266;51.522;6.302;2023-07-29T01:27:22;19.30;99.90
22202;DHT22;11266;51.522;6.302;2023-07-29T01:28:08;19.40;99.90
22202;DHT22;11266;51.522;6.302;2023-07-29T01:28:54;19.40;99.90
22202;DHT22;11266;51.522;6.302;2023-07-29T01:29:40;19.40;99.90
22202;DHT22;11266;51.522;6.302;2023-07-29T01:30:39;19.40;99.90
22202;DHT22;11266;51.522;6.302;2023-07-29T01:31:32;19.40;99.90
22202;DHT22;11266;51.522;6.302;2023-07-29T01:33:26;19.40;99.90
22202;DHT22;11266;51.522;6.302;2023-07-29T01:34:29;19.40;99.90
22202;DHT22;11266;51.522;6.302;2023-07-29T01:35:24;19.40;99.90
22202;DHT22;11266;51.522;6.302;2023-07-29T01:36:17;19.40;99.90
22202;DHT22;11266;51.522;6.302;2023-07-29T01:37:06;19.40;99.90
22202;DHT22;11266;51.522;6.302;2023-07-29T01:38:07;19.40;99.90
22202;DHT22;11266;51.522;6.302;2023-07-29T01:38:55;19.40;99.90
22202;DHT22;11266;51.522;6.302;2023-07-29T01:39:42;19.40;99.90
22202;DHT22;11266;51.522;6.302;2023-07-29T01:40:28;19.30;99.90
22202;DHT22;11266;51.522;6.302;2023-07-29T01:41:14;19.40;99.90
22202;DHT22;11266;51.522;6.302;2023-07-29T01:42:01;19.30;99.90
22202;DHT22;11266;51.522;6.302;2023-07-29T01:42:47;19.40;99.90
22202;DHT22;11266;51.522;6.302;2023-07-29T01:43:33;19.40;99.90
22202;DHT22;11266;51.522;6.302;2023-07-29T01:44:19;19.40;99.90
22202;DHT22;11266;51.522;6.302;2023-07-29T01:45:05;19.40;99.90
22202;DHT22;11266;51.522;6.302;2023-07-29T01:45:51;19.40;99.90
22202;DHT22;11266;51.522;6.302;2023-07-29T01:46:37;19.50;99.90
22202;DHT22;11266;51.522;6.302;2023-07-29T01:47:22;19.50;99.90
22202;DHT22;11266;51.522;6.302;2023-07-29T01:48:08;19.50;99.90
22202;DHT22;11266;51.522;6.302;2023-07-29T01:48:54;19.50;99.90
22202;DHT22;11266;51.522;6.302;2023-07-29T01:49:39;19.50;99.90
22202;DHT22;11266;51.522;6.302;2023-07-29T01:50:25;19.50;99.90
22202;DHT22;11266;51.522;6.302;2023-07-29T01:51:11;19.50;99.90
22202;DHT22;11266;51.522;6.302;2023-07-29T01:51:57;19.50;99.90
22202;DHT22;11266;51.522;6.302;2023-07-29T01:52:43;19.50;99.90
22202;DHT22;11266;51.522;6.302;2023-07-29T01:53:28;19.50;99.90
22202;DHT22;11266;51.522;6.302;2023-07-29T01:54:14;19.50;99.90
22202;DHT22;11266;51.522;6.302;2023-07-29T01:54:59;19.50;99.90
22202;DHT22;11266;51.522;6.302;2023-07-29T01:55:45;19.50;99.90
22202;DHT22;11266;51.522;6.302;2023-07-29T01:56:31;19.50;99.90
22202;DHT22;11266;51.522;6.302;2023-07-29T01:57:16;19.50;99.90
22202;DHT22;11266;51.522;6.302;2023-07-29T01:58:02;19.50;99.90
22202;DHT22;11266;51.522;6.302;2023-07-29T01:58:47;19.40;99.90
22202;DHT22;11266;51.522;6.302;2023-07-29T01:59:33;19.50;99.90
22202;DHT22;11266;51.522;6.302;2023-07-29T02:00:19;19.50;99.90
22202;DHT22;11266;51.522;6.302;2023-07-29T02:01:04;19.40;99.90
22202;DHT22;11266;51.522;6.302;2023-07-29T02:01:50;19.40;99.90
22202;DHT22;11266;51.522;6.302;2023-07-29T02:02:35;19.50;99.90
22202;DHT22;11266;51.522;6.302;2023-07-29T02:03:21;19.40;99.90
22202;DHT22;11266;51.522;6.302;2023-07-29T02:04:06;19.40;99.90
22202;DHT22;11266;51.522;6.302;2023-07-29T02:04:52;19.40;99.90
22202;DHT22;11266;51.522;6.302;2023-07-29T02:05:37;19.40;99.90
22202;DHT22;11266;51.522;6.302;2023-07-29T02:06:23;19.40;99.90
22202;DHT22;11266;51.522;6.302;2023-07-29T02:07:09;19.50;99.90
22202;DHT22;11266;51.522;6.302;2023-07-29T02:07:55;19.50;99.90
22202;DHT22;11266;51.522;6.302;2023-07-29T02:08:40;19.50;99.90
22202;DHT22;11266;51.522;6.302;2023-07-29T02:09:26;19.50;99.90
22202;DHT22;11266;51.522;6.302;2023-07-29T02:10:12;19.50;99.90
22202;DHT22;11266;51.522;6.302;2023-07-29T02:10:58;19.50;99.90
22202;DHT22;11266;51.522;6.302;2023-07-29T02:11:44;19.50;99.90
22202;DHT22;11266;51.522;6.302;2023-07-29T02:12:29;19.50;99.90
22202;DHT22;11266;51.522;6.302;2023-07-29T02:13:15;19.50;99.90
22202;DHT22;11266;51.522;6.302;2023-07-29T02:14:00;19.50;99.90
22202;DHT22;11266;51.522;6.302;2023-07-29T02:14:46;19.40;99.90
22202;DHT22;11266;51.522;6.302;2023-07-29T02:15:31;19.40;99.90
22202;DHT22;11266;51.522;6.302;2023-07-29T02:16:17;19.50;99.90
22202;DHT22;11266;51.522;6.302;2023-07-29T02:17:03;19.50;99.90
22202;DHT22;11266;51.522;6.302;2023-07-29T02:17:50;19.50;99.90
22202;DHT22;11266;51.522;6.302;2023-07-29T02:18:37;19.40;99.90
22202;DHT22;11266;51.522;6.302;2023-07-29T02:19:22;19.40;99.90
22202;DHT22;11266;51.522;6.302;2023-07-29T02:20:08;19.50;99.90
22202;DHT22;11266;51.522;6.302;2023-07-29T02:20:55;19.50;99.90
22202;DHT22;11266;51.522;6.302;2023-07-29T02:21:41;19.50;99.90
22202;DHT22;11266;51.522;6.302;2023-07-29T02:22:27;19.50;99.90
22202;DHT22;11266;51.522;6.302;2023-07-29T02:23:12;19.50;99.90
22202;DHT22;11266;51.522;6.302;2023-07-29T02:23:58;19.50;99.90
22202;DHT22;11266;51.522;6.302;2023-07-29T02:24:44;19.50;99.90
22202;DHT22;11266;51.522;6.302;2023-07-29T02:25:30;19.50;99.90
22202;DHT22;11266;51.522;6.302;2023-07-29T02:26:16;19.50;99.90
22202;DHT22;11266;51.522;6.302;2023-07-29T02:27:02;19.50;99.90
22202;DHT22;11266;51.522;6.302;2023-07-29T02:27:47;19.50;99.90
22202;DHT22;11266;51.522;6.302;2023-07-29T02:28:33;19.50;99.90
22202;DHT22;11266;51.522;6.302;2023-07-29T02:29:19;19.50;99.90
22202;DHT22;11266;51.522;6.302;2023-07-29T02:30:05;19.50;99.90
22202;DHT22;11266;51.522;6.302;2023-07-29T02:31:12;19.50;99.90
22202;DHT22;11266;51.522;6.302;2023-07-29T02:31:57;19.50;99.90
22202;DHT22;11266;51.522;6.302;2023-07-29T02:32:43;19.50;99.90
22202;DHT22;11266;51.522;6.302;2023-07-29T02:33:28;19.50;99.90
22202;DHT22;11266;51.522;6.302;2023-07-29T02:34:14;19.40;99.90
22202;DHT22;11266;51.522;6.302;2023-07-29T02:35:00;19.50;99.90
22202;DHT22;11266;51.522;6.302;2023-07-29T02:35:45;19.50;99.90
22202;DHT22;11266;51.522;6.302;2023-07-29T02:36:31;19.40;99.90
22202;DHT22;11266;51.522;6.302;2023-07-29T02:37:16;19.50;99.90
22202;DHT22;11266;51.522;6.302;2023-07-29T02:38:02;19.50;99.90
22202;DHT22;11266;51.522;6.302;2023-07-29T02:38:48;19.50;99.90
22202;DHT22;11266;51.522;6.302;2023-07-29T02:39:33;19.40;99.90
22202;DHT22;11266;51.522;6.302;2023-07-29T02:40:19;19.40;99.90
22202;DHT22;11266;51.522;6.302;2023-07-29T02:41:06;19.40;99.90
22202;DHT22;11266;51.522;6.302;2023-07-29T02:41:51;19.40;99.90
22202;DHT22;11266;51.522;6.302;2023-07-29T02:42:37;19.40;99.90
22202;DHT22;11266;51.522;6.302;2023-07-29T02:43:23;19.40;99.90
22202;DHT22;11266;51.522;6.302;2023-07-29T02:44:09;19.40;99.90
22202;DHT22;11266;51.522;6.302;2023-07-29T02:44:54;19.40;99.90
22202;DHT22;11266;51.522;6.302;2023-07-29T02:45:41;19.40;99.90
22202;DHT22;11266;51.522;6.302;2023-07-29T02:46:26;19.50;99.90
22202;DHT22;11266;51.522;6.302;2023-07-29T02:47:12;19.50;99.90
22202;DHT22;11266;51.522;6.302;2023-07-29T02:47:57;19.50;99.90
22202;DHT22;11266;51.522;6.302;2023-07-29T02:48:44;19.50;99.90
22202;DHT22;11266;51.522;6.302;2023-07-29T02:49:29;19.50;99.90
22202;DHT22;11266;51.522;6.302;2023-07-29T02:50:15;19.50;99.90
22202;DHT22;11266;51.522;6.302;2023-07-29T02:51:00;19.50;99.90
22202;DHT22;11266;51.522;6.302;2023-07-29T02:51:46;19.50;99.90
22202;DHT22;11266;51.522;6.302;2023-07-29T02:52:32;19.50;99.90
22202;DHT22;11266;51.522;6.302;2023-07-29T02:53:17;19.40;99.90
22202;DHT22;11266;51.522;6.302;2023-07-29T02:54:03;19.40;99.90
22202;DHT22;11266;51.522;6.302;2023-07-29T02:54:48;19.40;99.90
22202;DHT22;11266;51.522;6.302;2023-07-29T02:55:34;19.40;99.90
22202;DHT22;11266;51.522;6.302;2023-07-29T02:56:19;19.30;99.90
22202;DHT22;11266;51.522;6.302;2023-07-29T02:57:05;19.40;99.90
22202;DHT22;11266;51.522;6.302;2023-07-29T02:57:50;19.40;99.90
22202;DHT22;11266;51.522;6.302;2023-07-29T02:58:37;19.40;99.90
22202;DHT22;11266;51.522;6.302;2023-07-29T02:59:23;19.40;99.90
22202;DHT22;11266;51.522;6.302;2023-07-29T03:00:09;19.40;99.90
22202;DHT22;11266;51.522;6.302;2023-07-29T03:01:01;19.40;99.90
22202;DHT22;11266;51.522;6.302;2023-07-29T03:01:48;19.50;99.90
22202;DHT22;11266;51.522;6.302;2023-07-29T03:02:33;19.40;99.90
22202;DHT22;11266;51.522;6.302;2023-07-29T03:03:19;19.40;99.90
22202;DHT22;11266;51.522;6.302;2023-07-29T03:04:05;19.40;99.90
22202;DHT22;11266;51.522;6.302;2023-07-29T03:04:50;19.40;99.90
22202;DHT22;11266;51.522;6.302;2023-07-29T03:05:36;19.50;99.90
22202;DHT22;11266;51.522;6.302;2023-07-29T03:06:24;19.40;99.90
22202;DHT22;11266;51.522;6.302;2023-07-29T03:07:09;19.50;99.90
22202;DHT22;11266;51.522;6.302;2023-07-29T03:07:55;19.50;99.90
22202;DHT22;11266;51.522;6.302;2023-07-29T03:08:40;19.60;99.90
22202;DHT22;11266;51.522;6.302;2023-07-29T03:09:26;19.50;99.90
22202;DHT22;11266;51.522;6.302;2023-07-29T03:10:11;19.50;99.90
22202;DHT22;11266;51.522;6.302;2023-07-29T03:10:57;19.50;99.90
22202;DHT22;11266;51.522;6.302;2023-07-29T03:11:43;19.50;99.90
22202;DHT22;11266;51.522;6.302;2023-07-29T03:12:29;19.50;99.90
22202;DHT22;11266;51.522;6.302;2023-07-29T03:13:16;19.50;99.90
22202;DHT22;11266;51.522;6.302;2023-07-29T03:14:02;19.60;99.90
22202;DHT22;11266;51.522;6.302;2023-07-29T03:14:48;19.60;99.90
22202;DHT22;11266;51.522;6.302;2023-07-29T03:15:34;19.60;99.90
22202;DHT22;11266;51.522;6.302;2023-07-29T03:16:20;19.60;99.90
22202;DHT22;11266;51.522;6.302;2023-07-29T03:17:05;19.70;99.90
22202;DHT22;11266;51.522;6.302;2023-07-29T03:17:54;19.60;99.90
22202;DHT22;11266;51.522;6.302;2023-07-29T03:18:40;19.60;99.90
22202;DHT22;11266;51.522;6.302;2023-07-29T03:19:26;19.70;99.90
22202;DHT22;11266;51.522;6.302;2023-07-29T03:20:12;19.70;99.90
22202;DHT22;11266;51.522;6.302;2023-07-29T03:20:57;19.70;99.90
22202;DHT22;11266;51.522;6.302;2023-07-29T03:21:43;19.70;99.90
22202;DHT22;11266;51.522;6.302;2023-07-29T03:22:28;19.80;99.90
22202;DHT22;11266;51.522;6.302;2023-07-29T03:23:14;19.70;99.90
22202;DHT22;11266;51.522;6.302;2023-07-29T03:23:59;19.60;99.90
22202;DHT22;11266;51.522;6.302;2023-07-29T03:24:45;19.60;99.90
22202;DHT22;11266;51.522;6.302;2023-07-29T03:25:31;19.60;99.90
22202;DHT22;11266;51.522;6.302;2023-07-29T03:26:16;19.60;99.90
22202;DHT22;11266;51.522;6.302;2023-07-29T03:27:02;19.70;99.90
22202;DHT22;11266;51.522;6.302;2023-07-29T03:27:48;19.80;99.90
22202;DHT22;11266;51.522;6.302;2023-07-29T03:28:34;19.70;99.90
22202;DHT22;11266;51.522;6.302;2023-07-29T03:29:20;19.70;99.90
22202;DHT22;11266;51.522;6.302;2023-07-29T03:30:06;19.70;99.90
22202;DHT22;11266;51.522;6.302;2023-07-29T03:30:53;19.70;99.90
22202;DHT22;11266;51.522;6.302;2023-07-29T03:31:38;19.60;99.90
22202;DHT22;11266;51.522;6.302;2023-07-29T03:32:24;19.60;99.90
22202;DHT22;11266;51.522;6.302;2023-07-29T03:33:09;19.70;99.90
22202;DHT22;11266;51.522;6.302;2023-07-29T03:33:55;19.70;99.90
22202;DHT22;11266;51.522;6.302;2023-07-29T03:34:40;19.70;99.90
22202;DHT22;11266;51.522;6.302;2023-07-29T03:35:26;19.80;99.90
22202;DHT22;11266;51.522;6.302;2023-07-29T03:36:12;19.70;99.90
22202;DHT22;11266;51.522;6.302;2023-07-29T03:36:57;19.70;99.90
22202;DHT22;11266;51.522;6.302;2023-07-29T03:37:43;19.70;99.90
22202;DHT22;11266;51.522;6.302;2023-07-29T03:38:28;19.70;99.90
22202;DHT22;11266;51.522;6.302;2023-07-29T03:39:14;19.70;99.90
22202;DHT22;11266;51.522;6.302;2023-07-29T03:40:00;19.70;99.90
22202;DHT22;11266;51.522;6.302;2023-07-29T03:40:45;19.70;99.90
22202;DHT22;11266;51.522;6.302;2023-07-29T03:41:31;19.60;99.90
22202;DHT22;11266;51.522;6.302;2023-07-29T03:42:17;19.50;99.90
22202;DHT22;11266;51.522;6.302;2023-07-29T03:43:02;19.50;99.90
22202;DHT22;11266;51.522;6.302;2023-07-29T03:43:48;19.40;99.90
22202;DHT22;11266;51.522;6.302;2023-07-29T03:44:34;19.40;99.90
22202;DHT22;11266;51.522;6.302;2023-07-29T03:45:21;19.40;99.90
22202;DHT22;11266;51.522;6.302;2023-07-29T03:46:06;19.30;99.90
22202;DHT22;11266;51.522;6.302;2023-07-29T03:46:52;19.30;99.90
22202;DHT22;11266;51.522;6.302;2023-07-29T03:47:37;19.30;99.90
22202;DHT22;11266;51.522;6.302;2023-07-29T03:48:23;19.20;99.90
22202;DHT22;11266;51.522;6.302;2023-07-29T03:49:08;19.20;99.90
22202;DHT22;11266;51.522;6.302;2023-07-29T03:49:54;19.20;99.90
22202;DHT22;11266;51.522;6.302;2023-07-29T03:50:40;19.10;99.90
22202;DHT22;11266;51.522;6.302;2023-07-29T03:51:25;19.10;99.90
22202;DHT22;11266;51.522;6.302;2023-07-29T03:52:11;19.10;99.90
22202;DHT22;11266;51.522;6.302;2023-07-29T03:52:56;19.10;99.90
22202;DHT22;11266;51.522;6.302;2023-07-29T03:53:42;19.10;99.90
22202;DHT22;11266;51.522;6.302;2023-07-29T03:54:28;19.10;99.90
22202;DHT22;11266;51.522;6.302;2023-07-29T03:55:13;19.10;99.90
22202;DHT22;11266;51.522;6.302;2023-07-29T03:55:59;19.10;99.90
22202;DHT22;11266;51.522;6.302;2023-07-29T03:56:44;19.00;99.90
22202;DHT22;11266;51.522;6.302;2023-07-29T03:57:30;19.10;99.90
22202;DHT22;11266;51.522;6.302;2023-07-29T03:58:15;19.10;99.90
22202;DHT22;11266;51.522;6.302;2023-07-29T03:59:07;19.00;99.90
22202;DHT22;11266;51.522;6.302;2023-07-29T03:59:52;19.00;99.90
22202;DHT22;11266;51.522;6.302;2023-07-29T04:00:38;19.00;99.90
22202;DHT22;11266;51.522;6.302;2023-07-29T04:01:24;19.00;99.90
22202;DHT22;11266;51.522;6.302;2023-07-29T04:02:09;19.10;99.90
22202;DHT22;11266;51.522;6.302;2023-07-29T04:02:55;19.10;99.90
22202;DHT22;11266;51.522;6.302;2023-07-29T04:03:40;19.10;99.90
22202;DHT22;11266;51.522;6.302;2023-07-29T04:04:26;19.10;99.90
22202;DHT22;11266;51.522;6.302;2023-07-29T04:05:11;19.10;99.90
22202;DHT22;11266;51.522;6.302;2023-07-29T04:05:57;19.20;99.90
22202;DHT22;11266;51.522;6.302;2023-07-29T04:06:43;19.20;99.90
22202;DHT22;11266;51.522;6.302;2023-07-29T04:07:28;19.10;99.90
22202;DHT22;11266;51.522;6.302;2023-07-29T04:08:14;19.10;99.90
22202;DHT22;11266;51.522;6.302;2023-07-29T04:08:59;19.10;99.90
22202;DHT22;11266;51.522;6.302;2023-07-29T04:09:45;19.20;99.90
22202;DHT22;11266;51.522;6.302;2023-07-29T04:10:31;19.20;99.90
22202;DHT22;11266;51.522;6.302;2023-07-29T04:11:17;19.20;99.90
22202;DHT22;11266;51.522;6.302;2023-07-29T04:12:03;19.20;99.90
22202;DHT22;11266;51.522;6.302;2023-07-29T04:12:48;19.10;99.90
22202;DHT22;11266;51.522;6.302;2023-07-29T04:13:34;19.20;99.90
22202;DHT22;11266;51.522;6.302;2023-07-29T04:14:19;19.20;99.90
22202;DHT22;11266;51.522;6.302;2023-07-29T04:15:06;19.20;99.90
22202;DHT22;11266;51.522;6.302;2023-07-29T04:15:51;19.20;99.90
22202;DHT22;11266;51.522;6.302;2023-07-29T04:16:37;19.30;99.90
22202;DHT22;11266;51.522;6.302;2023-07-29T04:17:23;19.20;99.90
22202;DHT22;11266;51.522;6.302;2023-07-29T04:18:08;19.10;99.90
22202;DHT22;11266;51.522;6.302;2023-07-29T04:18:54;19.10;99.90
22202;DHT22;11266;51.522;6.302;2023-07-29T04:19:39;19.00;99.90
22202;DHT22;11266;51.522;6.302;2023-07-29T04:20:25;19.00;99.90
22202;DHT22;11266;51.522;6.302;2023-07-29T04:21:11;18.90;99.90
22202;DHT22;11266;51.522;6.302;2023-07-29T04:21:56;19.00;99.90
22202;DHT22;11266;51.522;6.302;2023-07-29T04:22:42;18.90;99.90
22202;DHT22;11266;51.522;6.302;2023-07-29T04:23:27;18.90;99.90
22202;DHT22;11266;51.522;6.302;2023-07-29T04:24:13;18.90;99.90
22202;DHT22;11266;51.522;6.302;2023-07-29T04:24:58;19.00;99.90
22202;DHT22;11266;51.522;6.302;2023-07-29T04:25:44;18.90;99.90
22202;DHT22;11266;51.522;6.302;2023-07-29T04:26:30;18.90;99.90
22202;DHT22;11266;51.522;6.302;2023-07-29T04:27:15;18.90;99.90
22202;DHT22;11266;51.522;6.302;2023-07-29T04:28:01;18.90;99.90
22202;DHT22;11266;51.522;6.302;2023-07-29T04:28:48;18.80;99.90
22202;DHT22;11266;51.522;6.302;2023-07-29T04:29:34;18.80;99.90
22202;DHT22;11266;51.522;6.302;2023-07-29T04:30:21;18.80;99.90
22202;DHT22;11266;51.522;6.302;2023-07-29T04:31:06;18.80;99.90
22202;DHT22;11266;51.522;6.302;2023-07-29T04:31:52;18.80;99.90
22202;DHT22;11266;51.522;6.302;2023-07-29T04:32:37;18.80;99.90
22202;DHT22;11266;51.522;6.302;2023-07-29T04:33:23;18.70;99.90
22202;DHT22;11266;51.522;6.302;2023-07-29T04:34:09;18.70;99.90
22202;DHT22;11266;51.522;6.302;2023-07-29T04:34:54;18.70;99.90
22202;DHT22;11266;51.522;6.302;2023-07-29T04:35:40;18.70;99.90
22202;DHT22;11266;51.522;6.302;2023-07-29T04:36:25;18.60;99.90
22202;DHT22;11266;51.522;6.302;2023-07-29T04:37:11;18.60;99.90
22202;DHT22;11266;51.522;6.302;2023-07-29T04:37:56;18.50;99.90
22202;DHT22;11266;51.522;6.302;2023-07-29T04:38:42;18.50;99.90
22202;DHT22;11266;51.522;6.302;2023-07-29T04:39:27;18.50;99.90
22202;DHT22;11266;51.522;6.302;2023-07-29T04:40:13;18.40;99.90
22202;DHT22;11266;51.522;6.302;2023-07-29T04:40:59;18.40;99.90
22202;DHT22;11266;51.522;6.302;2023-07-29T04:41:47;18.40;99.90
22202;DHT22;11266;51.522;6.302;2023-07-29T04:42:33;18.40;99.90
22202;DHT22;11266;51.522;6.302;2023-07-29T04:43:18;18.40;99.90
22202;DHT22;11266;51.522;6.302;2023-07-29T04:44:04;18.30;99.90
22202;DHT22;11266;51.522;6.302;2023-07-29T04:44:50;18.30;99.90
22202;DHT22;11266;51.522;6.302;2023-07-29T04:45:35;18.40;99.90
22202;DHT22;11266;51.522;6.302;2023-07-29T04:46:21;18.40;99.90
22202;DHT22;11266;51.522;6.302;2023-07-29T04:47:06;18.30;99.90
22202;DHT22;11266;51.522;6.302;2023-07-29T04:47:52;18.40;99.90
22202;DHT22;11266;51.522;6.302;2023-07-29T04:48:37;18.40;99.90
22202;DHT22;11266;51.522;6.302;2023-07-29T04:49:23;18.30;99.90
22202;DHT22;11266;51.522;6.302;2023-07-29T04:50:09;18.40;99.90
22202;DHT22;11266;51.522;6.302;2023-07-29T04:50:54;18.40;99.90
22202;DHT22;11266;51.522;6.302;2023-07-29T04:51:40;18.30;99.90
22202;DHT22;11266;51.522;6.302;2023-07-29T04:52:26;18.40;99.90
22202;DHT22;11266;51.522;6.302;2023-07-29T04:53:11;18.40;99.90
22202;DHT22;11266;51.522;6.302;2023-07-29T04:53:57;18.40;99.90
22202;DHT22;11266;51.522;6.302;2023-07-29T04:54:43;18.40;99.90
22202;DHT22;11266;51.522;6.302;2023-07-29T04:55:28;18.40;99.90
22202;DHT22;11266;51.522;6.302;2023-07-29T04:56:14;18.40;99.90
22202;DHT22;11266;51.522;6.302;2023-07-29T04:57:00;18.40;99.90
22202;DHT22;11266;51.522;6.302;2023-07-29T04:57:45;18.40;99.90